<?xml version="1.0" encoding="UTF-8" standalone="no" ?>
<gpx xmlns="http://www.topografix.com/GPX/1/1" xmlns:xsi="http://www.w3.org/2001/XMLSchema-instance" xsi:schemaLocation="http://www.topografix.com/GPX/1/1 http://www.topografix.com/GPX/1/1/gpx.xsd" version="1.1" creator="VisuGPX - https://www.visugpx.com">
  <metadata>
    <name>Norvège</name>
  </metadata>
  <trk>
    <name><![CDATA[Tour d'Europe: étape 028]]></name>
    <trkseg>
      <trkpt lat="60.84353" lon="5.17176">
        <ele>65.109412</ele>
        <time>2020-07-26T07:03:28.813Z</time>
      </trkpt>
      <trkpt lat="60.84323" lon="5.16676">
        <ele>61.934774</ele>
        <time>2020-07-26T07:04:32.770Z</time>
      </trkpt>
      <trkpt lat="60.84399" lon="5.16291">
        <ele>70.026038</ele>
        <time>2020-07-26T07:05:42.777Z</time>
      </trkpt>
      <trkpt lat="60.84571" lon="5.15956">
        <ele>63.528615</ele>
        <time>2020-07-26T07:06:33.811Z</time>
      </trkpt>
      <trkpt lat="60.84712" lon="5.15627">
        <ele>62.705195</ele>
        <time>2020-07-26T07:07:10.795Z</time>
      </trkpt>
      <trkpt lat="60.84608" lon="5.15399">
        <ele>72.494577</ele>
        <time>2020-07-26T07:08:35.825Z</time>
      </trkpt>
      <trkpt lat="60.84503" lon="5.15074">
        <ele>88.229782</ele>
        <time>2020-07-26T07:10:26.798Z</time>
      </trkpt>
      <trkpt lat="60.84465" lon="5.14677">
        <ele>95.821543</ele>
        <time>2020-07-26T07:12:04.833Z</time>
      </trkpt>
      <trkpt lat="60.84534" lon="5.14197">
        <ele>100.339631</ele>
        <time>2020-07-26T07:13:08.787Z</time>
      </trkpt>
      <trkpt lat="60.84628" lon="5.13834">
        <ele>91.891119</ele>
        <time>2020-07-26T07:13:31.784Z</time>
      </trkpt>
      <trkpt lat="60.84588" lon="5.13445">
        <ele>99.951141</ele>
        <time>2020-07-26T07:15:09.782Z</time>
      </trkpt>
      <trkpt lat="60.84593" lon="5.1301">
        <ele>107.776478</ele>
        <time>2020-07-26T07:16:51.827Z</time>
      </trkpt>
      <trkpt lat="60.84727" lon="5.12551">
        <ele>104.874894</ele>
        <time>2020-07-26T07:17:26.815Z</time>
      </trkpt>
      <trkpt lat="60.84884" lon="5.12236">
        <ele>92.411128</ele>
        <time>2020-07-26T07:17:50.790Z</time>
      </trkpt>
      <trkpt lat="60.85108" lon="5.11946">
        <ele>79.369712</ele>
        <time>2020-07-26T07:18:25.786Z</time>
      </trkpt>
      <trkpt lat="60.8525" lon="5.11605">
        <ele>66.699852</ele>
        <time>2020-07-26T07:18:46.793Z</time>
      </trkpt>
      <trkpt lat="60.85457" lon="5.11304">
        <ele>63.60244</ele>
        <time>2020-07-26T07:19:22.823Z</time>
      </trkpt>
      <trkpt lat="60.85675" lon="5.1137">
        <ele>70.219086</ele>
        <time>2020-07-26T07:20:15.804Z</time>
      </trkpt>
      <trkpt lat="60.85907" lon="5.11569">
        <ele>62.035667</ele>
        <time>2020-07-26T07:20:57.807Z</time>
      </trkpt>
      <trkpt lat="60.86152" lon="5.11649">
        <ele>54.822518</ele>
        <time>2020-07-26T07:21:37.791Z</time>
      </trkpt>
      <trkpt lat="60.8637" lon="5.11689">
        <ele>58.593846</ele>
        <time>2020-07-26T07:22:41.795Z</time>
      </trkpt>
      <trkpt lat="60.8667" lon="5.11829">
        <ele>56.061933</ele>
        <time>2020-07-26T07:23:21.824Z</time>
      </trkpt>
      <trkpt lat="60.86907" lon="5.11734">
        <ele>53.18143</ele>
        <time>2020-07-26T07:24:12.788Z</time>
      </trkpt>
      <trkpt lat="60.87145" lon="5.11831">
        <ele>49.216559</ele>
        <time>2020-07-26T07:25:05.807Z</time>
      </trkpt>
      <trkpt lat="60.87342" lon="5.12037">
        <ele>46.341275</ele>
        <time>2020-07-26T07:25:59.811Z</time>
      </trkpt>
      <trkpt lat="60.87564" lon="5.12166">
        <ele>54.613857</ele>
        <time>2020-07-26T07:27:01.775Z</time>
      </trkpt>
      <trkpt lat="60.87681" lon="5.12502">
        <ele>56.670521</ele>
        <time>2020-07-26T07:28:02.779Z</time>
      </trkpt>
      <trkpt lat="60.8782" lon="5.12884">
        <ele>56.482157</ele>
        <time>2020-07-26T07:28:57.824Z</time>
      </trkpt>
      <trkpt lat="60.87851" lon="5.13337">
        <ele>54.886084</ele>
        <time>2020-07-26T07:30:53.793Z</time>
      </trkpt>
      <trkpt lat="60.88049" lon="5.13331">
        <ele>53.360066</ele>
        <time>2020-07-26T07:31:46.795Z</time>
      </trkpt>
      <trkpt lat="60.88213" lon="5.13569">
        <ele>58.835365</ele>
        <time>2020-07-26T07:32:44.798Z</time>
      </trkpt>
      <trkpt lat="60.88403" lon="5.13461">
        <ele>71.243689</ele>
        <time>2020-07-26T07:34:28.828Z</time>
      </trkpt>
      <trkpt lat="60.88601" lon="5.13298">
        <ele>81.389537</ele>
        <time>2020-07-26T07:36:12.777Z</time>
      </trkpt>
      <trkpt lat="60.88762" lon="5.13087">
        <ele>80.2847</ele>
        <time>2020-07-26T07:37:31.798Z</time>
      </trkpt>
      <trkpt lat="60.89012" lon="5.1317">
        <ele>67.713286</ele>
        <time>2020-07-26T07:38:07.789Z</time>
      </trkpt>
      <trkpt lat="60.89198" lon="5.13239">
        <ele>57.725007</ele>
        <time>2020-07-26T07:38:28.807Z</time>
      </trkpt>
      <trkpt lat="60.89325" lon="5.12859">
        <ele>64.081885</ele>
        <time>2020-07-26T07:39:53.788Z</time>
      </trkpt>
      <trkpt lat="60.89509" lon="5.12688">
        <ele>81.724184</ele>
        <time>2020-07-26T07:42:03.792Z</time>
      </trkpt>
      <trkpt lat="60.897" lon="5.12624">
        <ele>91.562592</ele>
        <time>2020-07-26T07:44:03.783Z</time>
      </trkpt>
      <trkpt lat="60.89841" lon="5.12975">
        <ele>95.246206</ele>
        <time>2020-07-26T07:45:08.795Z</time>
      </trkpt>
      <trkpt lat="60.90045" lon="5.13058">
        <ele>98.547767</ele>
        <time>2020-07-26T07:45:57.816Z</time>
      </trkpt>
      <trkpt lat="60.90231" lon="5.13312">
        <ele>90.012543</ele>
        <time>2020-07-26T07:46:36.820Z</time>
      </trkpt>
      <trkpt lat="60.90428" lon="5.13508">
        <ele>78.230177</ele>
        <time>2020-07-26T07:47:01.801Z</time>
      </trkpt>
      <trkpt lat="60.90627" lon="5.13657">
        <ele>85.3072</ele>
        <time>2020-07-26T07:48:13.781Z</time>
      </trkpt>
      <trkpt lat="60.90824" lon="5.13785">
        <ele>89.322645</ele>
        <time>2020-07-26T07:49:29.808Z</time>
      </trkpt>
      <trkpt lat="60.91036" lon="5.13751">
        <ele>89.539304</ele>
        <time>2020-07-26T07:50:19.799Z</time>
      </trkpt>
      <trkpt lat="60.91225" lon="5.13519">
        <ele>96.244574</ele>
        <time>2020-07-26T07:51:29.787Z</time>
      </trkpt>
      <trkpt lat="60.9144" lon="5.13328">
        <ele>94.757803</ele>
        <time>2020-07-26T07:52:38.790Z</time>
      </trkpt>
      <trkpt lat="60.91663" lon="5.13363">
        <ele>82.451967</ele>
        <time>2020-07-26T07:53:04.805Z</time>
      </trkpt>
      <trkpt lat="60.91911" lon="5.1323">
        <ele>71.800491</ele>
        <time>2020-07-26T07:53:34.792Z</time>
      </trkpt>
      <trkpt lat="60.92127" lon="5.1306">
        <ele>72.066792</ele>
        <time>2020-07-26T07:54:20.814Z</time>
      </trkpt>
      <trkpt lat="60.92369" lon="5.13044">
        <ele>71.128875</ele>
        <time>2020-07-26T07:55:19.800Z</time>
      </trkpt>
      <trkpt lat="60.92544" lon="5.13236">
        <ele>76.964573</ele>
        <time>2020-07-26T07:56:54.786Z</time>
      </trkpt>
      <trkpt lat="60.92752" lon="5.13281">
        <ele>80.111467</ele>
        <time>2020-07-26T07:57:47.790Z</time>
      </trkpt>
      <trkpt lat="60.92954" lon="5.13277">
        <ele>77.193581</ele>
        <time>2020-07-26T07:58:54.809Z</time>
      </trkpt>
      <trkpt lat="60.93153" lon="5.13509">
        <ele>65.341017</ele>
        <time>2020-07-26T07:59:22.834Z</time>
      </trkpt>
      <trkpt lat="60.93371" lon="5.13527">
        <ele>61.111209</ele>
        <time>2020-07-26T07:59:47.793Z</time>
      </trkpt>
      <trkpt lat="60.93559" lon="5.13439">
        <ele>73.178206</ele>
        <time>2020-07-26T08:06:06.797Z</time>
      </trkpt>
      <trkpt lat="60.93493" lon="5.13837">
        <ele>81.398375</ele>
        <time>2020-07-26T08:07:37.784Z</time>
      </trkpt>
      <trkpt lat="60.93521" lon="5.14246">
        <ele>84.413911</ele>
        <time>2020-07-26T08:09:00.786Z</time>
      </trkpt>
      <trkpt lat="60.93691" lon="5.14511">
        <ele>82.475088</ele>
        <time>2020-07-26T08:10:05.812Z</time>
      </trkpt>
      <trkpt lat="60.93906" lon="5.1434">
        <ele>83.360501</ele>
        <time>2020-07-26T08:10:57.778Z</time>
      </trkpt>
      <trkpt lat="60.94072" lon="5.14082">
        <ele>84.79817</ele>
        <time>2020-07-26T08:11:57.777Z</time>
      </trkpt>
      <trkpt lat="60.94371" lon="5.13716">
        <ele>81.034388</ele>
        <time>2020-07-26T08:12:44.899Z</time>
      </trkpt>
      <trkpt lat="60.94558" lon="5.13579">
        <ele>87.190338</ele>
        <time>2020-07-26T08:14:27.797Z</time>
      </trkpt>
      <trkpt lat="60.94761" lon="5.13592">
        <ele>104.780742</ele>
        <time>2020-07-26T08:16:43.839Z</time>
      </trkpt>
      <trkpt lat="60.94902" lon="5.13894">
        <ele>112.142728</ele>
        <time>2020-07-26T08:18:29.813Z</time>
      </trkpt>
      <trkpt lat="60.95003" lon="5.14294">
        <ele>111.834573</ele>
        <time>2020-07-26T08:19:43.787Z</time>
      </trkpt>
      <trkpt lat="60.94962" lon="5.14769">
        <ele>99.597697</ele>
        <time>2020-07-26T08:20:04.793Z</time>
      </trkpt>
      <trkpt lat="60.95054" lon="5.15135">
        <ele>101.421269</ele>
        <time>2020-07-26T08:21:21.801Z</time>
      </trkpt>
      <trkpt lat="60.95223" lon="5.15357">
        <ele>113.223907</ele>
        <time>2020-07-26T08:23:08.786Z</time>
      </trkpt>
      <trkpt lat="60.95381" lon="5.15584">
        <ele>126.762282</ele>
        <time>2020-07-26T08:25:06.787Z</time>
      </trkpt>
      <trkpt lat="60.9555" lon="5.15829">
        <ele>139.37979</ele>
        <time>2020-07-26T08:27:14.821Z</time>
      </trkpt>
      <trkpt lat="60.95672" lon="5.16147">
        <ele>151.451194</ele>
        <time>2020-07-26T08:29:23.820Z</time>
      </trkpt>
      <trkpt lat="60.95842" lon="5.1638">
        <ele>154.909052</ele>
        <time>2020-07-26T08:33:12.795Z</time>
      </trkpt>
      <trkpt lat="60.95972" lon="5.16653">
        <ele>158.468405</ele>
        <time>2020-07-26T08:34:55.797Z</time>
      </trkpt>
      <trkpt lat="60.96664" lon="5.17436">
        <ele>124.017783</ele>
        <time>2020-07-26T08:37:46.795Z</time>
      </trkpt>
      <trkpt lat="60.96664" lon="5.17899">
        <ele>107.224623</ele>
        <time>2020-07-26T08:38:07.792Z</time>
      </trkpt>
      <trkpt lat="60.96732" lon="5.18423">
        <ele>81.483926</ele>
        <time>2020-07-26T08:38:38.829Z</time>
      </trkpt>
      <trkpt lat="60.96701" lon="5.1889">
        <ele>65.714933</ele>
        <time>2020-07-26T08:39:21.799Z</time>
      </trkpt>
      <trkpt lat="60.96827" lon="5.19329">
        <ele>57.34626</ele>
        <time>2020-07-26T08:40:06.792Z</time>
      </trkpt>
      <trkpt lat="60.96928" lon="5.19152">
        <ele>62.553958</ele>
        <time>2020-07-26T08:41:28.809Z</time>
      </trkpt>
      <trkpt lat="60.97042" lon="5.18803">
        <ele>73.099199</ele>
        <time>2020-07-26T08:43:13.792Z</time>
      </trkpt>
      <trkpt lat="60.97193" lon="5.18523">
        <ele>81.352604</ele>
        <time>2020-07-26T08:44:35.819Z</time>
      </trkpt>
      <trkpt lat="60.9742" lon="5.18674">
        <ele>91.32154</ele>
        <time>2020-07-26T08:46:09.893Z</time>
      </trkpt>
      <trkpt lat="60.9766" lon="5.18837">
        <ele>91.357153</ele>
        <time>2020-07-26T08:47:07.790Z</time>
      </trkpt>
      <trkpt lat="60.97878" lon="5.18897">
        <ele>86.032151</ele>
        <time>2020-07-26T08:47:58.819Z</time>
      </trkpt>
      <trkpt lat="60.98091" lon="5.18785">
        <ele>87.399728</ele>
        <time>2020-07-26T08:49:16.807Z</time>
      </trkpt>
      <trkpt lat="60.98282" lon="5.18658">
        <ele>98.739095</ele>
        <time>2020-07-26T08:50:49.819Z</time>
      </trkpt>
      <trkpt lat="60.98509" lon="5.18535">
        <ele>96.592708</ele>
        <time>2020-07-26T08:51:56.798Z</time>
      </trkpt>
      <trkpt lat="60.98703" lon="5.18409">
        <ele>100.767331</ele>
        <time>2020-07-26T08:53:00.795Z</time>
      </trkpt>
      <trkpt lat="60.98902" lon="5.18427">
        <ele>111.479717</ele>
        <time>2020-07-26T08:54:27.796Z</time>
      </trkpt>
      <trkpt lat="60.99121" lon="5.18714">
        <ele>102.863307</ele>
        <time>2020-07-26T08:54:53.790Z</time>
      </trkpt>
      <trkpt lat="60.99336" lon="5.1889">
        <ele>84.686548</ele>
        <time>2020-07-26T08:55:13.790Z</time>
      </trkpt>
      <trkpt lat="60.99547" lon="5.18781">
        <ele>72.100836</ele>
        <time>2020-07-26T08:55:34.815Z</time>
      </trkpt>
      <trkpt lat="60.99665" lon="5.18476">
        <ele>79.195648</ele>
        <time>2020-07-26T08:56:44.800Z</time>
      </trkpt>
      <trkpt lat="60.99877" lon="5.18723">
        <ele>67.705088</ele>
        <time>2020-07-26T08:57:20.791Z</time>
      </trkpt>
      <trkpt lat="61.00082" lon="5.18804">
        <ele>70.164695</ele>
        <time>2020-07-26T08:58:01.825Z</time>
      </trkpt>
      <trkpt lat="61.00241" lon="5.18954">
        <ele>85.814674</ele>
        <time>2020-07-26T09:00:34.831Z</time>
      </trkpt>
      <trkpt lat="61.00405" lon="5.19206">
        <ele>76.274418</ele>
        <time>2020-07-26T09:02:11.824Z</time>
      </trkpt>
      <trkpt lat="61.00588" lon="5.1925">
        <ele>62.30143</ele>
        <time>2020-07-26T09:02:55.790Z</time>
      </trkpt>
      <trkpt lat="61.00779" lon="5.19377">
        <ele>75.697544</ele>
        <time>2020-07-26T09:04:57.814Z</time>
      </trkpt>
      <trkpt lat="61.00947" lon="5.19555">
        <ele>93.958974</ele>
        <time>2020-07-26T09:07:30.789Z</time>
      </trkpt>
      <trkpt lat="61.01136" lon="5.19439">
        <ele>113.002911</ele>
        <time>2020-07-26T09:10:09.813Z</time>
      </trkpt>
      <trkpt lat="61.01325" lon="5.19327">
        <ele>131.454445</ele>
        <time>2020-07-26T09:12:51.804Z</time>
      </trkpt>
      <trkpt lat="61.01475" lon="5.19074">
        <ele>144.048726</ele>
        <time>2020-07-26T09:14:54.846Z</time>
      </trkpt>
      <trkpt lat="61.0169" lon="5.19012">
        <ele>160.071001</ele>
        <time>2020-07-26T09:16:21.820Z</time>
      </trkpt>
      <trkpt lat="61.01898" lon="5.19045">
        <ele>161.197971</ele>
        <time>2020-07-26T09:17:48.824Z</time>
      </trkpt>
      <trkpt lat="61.0213" lon="5.19063">
        <ele>150.985978</ele>
        <time>2020-07-26T09:18:43.794Z</time>
      </trkpt>
      <trkpt lat="61.02351" lon="5.18951">
        <ele>148.971007</ele>
        <time>2020-07-26T09:19:36.800Z</time>
      </trkpt>
      <trkpt lat="61.02558" lon="5.19024">
        <ele>153.806938</ele>
        <time>2020-07-26T09:20:29.843Z</time>
      </trkpt>
      <trkpt lat="61.02763" lon="5.19125">
        <ele>154.624228</ele>
        <time>2020-07-26T09:21:57.808Z</time>
      </trkpt>
      <trkpt lat="61.02872" lon="5.18859">
        <ele>172.185097</ele>
        <time>2020-07-26T09:24:15.808Z</time>
      </trkpt>
      <trkpt lat="61.02832" lon="5.18462">
        <ele>190.422093</ele>
        <time>2020-07-26T09:26:56.818Z</time>
      </trkpt>
      <trkpt lat="61.03004" lon="5.18302">
        <ele>191.141662</ele>
        <time>2020-07-26T09:28:25.802Z</time>
      </trkpt>
      <trkpt lat="61.03216" lon="5.18159">
        <ele>192.082516</ele>
        <time>2020-07-26T09:29:33.791Z</time>
      </trkpt>
      <trkpt lat="61.03418" lon="5.1804">
        <ele>196.249751</ele>
        <time>2020-07-26T09:30:38.840Z</time>
      </trkpt>
      <trkpt lat="61.03633" lon="5.18095">
        <ele>195.816092</ele>
        <time>2020-07-26T09:31:44.806Z</time>
      </trkpt>
      <trkpt lat="61.03831" lon="5.18061">
        <ele>212.261581</ele>
        <time>2020-07-26T09:33:58.806Z</time>
      </trkpt>
      <trkpt lat="61.03961" lon="5.1781">
        <ele>225.393554</ele>
        <time>2020-07-26T09:36:34.811Z</time>
      </trkpt>
      <trkpt lat="61.0416" lon="5.17831">
        <ele>239.760144</ele>
        <time>2020-07-26T09:39:16.822Z</time>
      </trkpt>
      <trkpt lat="61.04347" lon="5.17924">
        <ele>259.912474</ele>
        <time>2020-07-26T09:41:33.828Z</time>
      </trkpt>
      <trkpt lat="61.04525" lon="5.1811">
        <ele>273.493183</ele>
        <time>2020-07-26T09:44:15.827Z</time>
      </trkpt>
      <trkpt lat="61.04685" lon="5.18446">
        <ele>268.096063</ele>
        <time>2020-07-26T09:45:42.836Z</time>
      </trkpt>
      <trkpt lat="61.04887" lon="5.18646">
        <ele>255.292417</ele>
        <time>2020-07-26T09:46:06.806Z</time>
      </trkpt>
      <trkpt lat="61.05102" lon="5.18441">
        <ele>238.736119</ele>
        <time>2020-07-26T09:46:27.810Z</time>
      </trkpt>
      <trkpt lat="61.05351" lon="5.18453">
        <ele>219.217153</ele>
        <time>2020-07-26T09:46:47.800Z</time>
      </trkpt>
      <trkpt lat="61.05621" lon="5.18362">
        <ele>194.656332</ele>
        <time>2020-07-26T09:47:08.817Z</time>
      </trkpt>
      <trkpt lat="61.05868" lon="5.18226">
        <ele>168.911321</ele>
        <time>2020-07-26T09:47:29.807Z</time>
      </trkpt>
      <trkpt lat="61.06141" lon="5.18345">
        <ele>152.414459</ele>
        <time>2020-07-26T09:47:49.813Z</time>
      </trkpt>
      <trkpt lat="61.06434" lon="5.18476">
        <ele>127.936697</ele>
        <time>2020-07-26T09:48:24.810Z</time>
      </trkpt>
      <trkpt lat="61.06647" lon="5.18744">
        <ele>109.70905</ele>
        <time>2020-07-26T09:50:04.812Z</time>
      </trkpt>
      <trkpt lat="61.0692" lon="5.1887">
        <ele>90.86427</ele>
        <time>2020-07-26T09:50:38.811Z</time>
      </trkpt>
      <trkpt lat="61.07214" lon="5.18813">
        <ele>56.101064</ele>
        <time>2020-07-26T09:51:14.796Z</time>
      </trkpt>
      <trkpt lat="61.07405" lon="5.18939">
        <ele>50.865168</ele>
        <time>2020-07-26T09:52:59.825Z</time>
      </trkpt>
      <trkpt lat="61.0781" lon="5.19268">
        <ele>70.095056</ele>
        <time>2020-07-26T10:31:24.347Z</time>
      </trkpt>
      <trkpt lat="61.07959" lon="5.1964">
        <ele>67.781649</ele>
        <time>2020-07-26T10:32:23.356Z</time>
      </trkpt>
      <trkpt lat="61.08116" lon="5.20042">
        <ele>75.560341</ele>
        <time>2020-07-26T10:33:22.331Z</time>
      </trkpt>
      <trkpt lat="61.08254" lon="5.20431">
        <ele>73.545018</ele>
        <time>2020-07-26T10:34:19.333Z</time>
      </trkpt>
      <trkpt lat="61.08409" lon="5.20871">
        <ele>73.731544</ele>
        <time>2020-07-26T10:35:21.328Z</time>
      </trkpt>
      <trkpt lat="61.08558" lon="5.21269">
        <ele>63.626299</ele>
        <time>2020-07-26T10:36:20.326Z</time>
      </trkpt>
      <trkpt lat="61.08715" lon="5.21676">
        <ele>60.525602</ele>
        <time>2020-07-26T10:37:23.333Z</time>
      </trkpt>
      <trkpt lat="61.08871" lon="5.22051">
        <ele>66.105369</ele>
        <time>2020-07-26T10:38:26.328Z</time>
      </trkpt>
      <trkpt lat="61.09011" lon="5.22399">
        <ele>63.559488</ele>
        <time>2020-07-26T10:39:26.328Z</time>
      </trkpt>
      <trkpt lat="61.09168" lon="5.22759">
        <ele>65.821542</ele>
        <time>2020-07-26T10:40:29.344Z</time>
      </trkpt>
      <trkpt lat="61.09321" lon="5.23111">
        <ele>64.415836</ele>
        <time>2020-07-26T10:41:29.353Z</time>
      </trkpt>
      <trkpt lat="61.09485" lon="5.23474">
        <ele>70.464562</ele>
        <time>2020-07-26T10:42:31.309Z</time>
      </trkpt>
      <trkpt lat="61.09648" lon="5.23827">
        <ele>73.354164</ele>
        <time>2020-07-26T10:43:34.325Z</time>
      </trkpt>
      <trkpt lat="61.09797" lon="5.24192">
        <ele>77.175439</ele>
        <time>2020-07-26T10:44:34.343Z</time>
      </trkpt>
      <trkpt lat="61.09945" lon="5.24571">
        <ele>73.644511</ele>
        <time>2020-07-26T10:45:35.401Z</time>
      </trkpt>
      <trkpt lat="61.10089" lon="5.24933">
        <ele>72.777758</ele>
        <time>2020-07-26T10:46:35.312Z</time>
      </trkpt>
      <trkpt lat="61.1024" lon="5.25335">
        <ele>71.015669</ele>
        <time>2020-07-26T10:47:38.338Z</time>
      </trkpt>
      <trkpt lat="61.10383" lon="5.25738">
        <ele>63.678101</ele>
        <time>2020-07-26T10:48:38.329Z</time>
      </trkpt>
      <trkpt lat="61.10532" lon="5.26153">
        <ele>64.973368</ele>
        <time>2020-07-26T10:49:39.321Z</time>
      </trkpt>
      <trkpt lat="61.10679" lon="5.26577">
        <ele>66.690379</ele>
        <time>2020-07-26T10:50:39.318Z</time>
      </trkpt>
      <trkpt lat="61.1081" lon="5.26928">
        <ele>72.201939</ele>
        <time>2020-07-26T10:51:28.329Z</time>
      </trkpt>
      <trkpt lat="61.10984" lon="5.27327">
        <ele>72.800917</ele>
        <time>2020-07-26T10:52:29.329Z</time>
      </trkpt>
      <trkpt lat="61.11141" lon="5.27655">
        <ele>72.2486</ele>
        <time>2020-07-26T10:53:23.330Z</time>
      </trkpt>
      <trkpt lat="61.11278" lon="5.27975">
        <ele>72.405442</ele>
        <time>2020-07-26T10:54:54.343Z</time>
      </trkpt>
      <trkpt lat="61.11404" lon="5.28393">
        <ele>64.099849</ele>
        <time>2020-07-26T11:00:13.313Z</time>
      </trkpt>
      <trkpt lat="61.11264" lon="5.28598">
        <ele>70.133328</ele>
        <time>2020-07-26T11:02:04.329Z</time>
      </trkpt>
      <trkpt lat="61.11367" lon="5.28851">
        <ele>87.596071</ele>
        <time>2020-07-26T11:04:27.304Z</time>
      </trkpt>
      <trkpt lat="61.11463" lon="5.29256">
        <ele>87.95709</ele>
        <time>2020-07-26T11:06:12.328Z</time>
      </trkpt>
      <trkpt lat="61.1149" lon="5.29756">
        <ele>75.413966</ele>
        <time>2020-07-26T11:06:42.354Z</time>
      </trkpt>
      <trkpt lat="61.11504" lon="5.30232">
        <ele>67.461085</ele>
        <time>2020-07-26T11:07:29.328Z</time>
      </trkpt>
      <trkpt lat="61.11605" lon="5.30821">
        <ele>58.497254</ele>
        <time>2020-07-26T11:08:11.334Z</time>
      </trkpt>
      <trkpt lat="61.11679" lon="5.31265">
        <ele>59.618446</ele>
        <time>2020-07-26T11:09:23.360Z</time>
      </trkpt>
      <trkpt lat="61.11796" lon="5.3161">
        <ele>64.204086</ele>
        <time>2020-07-26T11:10:31.315Z</time>
      </trkpt>
      <trkpt lat="61.1191" lon="5.31992">
        <ele>62.85631</ele>
        <time>2020-07-26T11:11:38.309Z</time>
      </trkpt>
      <trkpt lat="61.12017" lon="5.32357">
        <ele>60.375962</ele>
        <time>2020-07-26T11:12:31.331Z</time>
      </trkpt>
      <trkpt lat="61.12218" lon="5.32452">
        <ele>60.101429</ele>
        <time>2020-07-26T11:13:41.328Z</time>
      </trkpt>
      <trkpt lat="61.12431" lon="5.32537">
        <ele>61.96887</ele>
        <time>2020-07-26T11:14:37.323Z</time>
      </trkpt>
      <trkpt lat="61.12656" lon="5.32478">
        <ele>54.718367</ele>
        <time>2020-07-26T11:15:24.340Z</time>
      </trkpt>
      <trkpt lat="61.12858" lon="5.32411">
        <ele>54.149174</ele>
        <time>2020-07-26T11:16:16.324Z</time>
      </trkpt>
      <trkpt lat="61.13032" lon="5.324">
        <ele>64.083166</ele>
        <time>2020-07-26T11:17:57.331Z</time>
      </trkpt>
      <trkpt lat="61.13179" lon="5.32784">
        <ele>67.392692</ele>
        <time>2020-07-26T11:19:02.302Z</time>
      </trkpt>
      <trkpt lat="61.13152" lon="5.33195">
        <ele>72.75914</ele>
        <time>2020-07-26T11:20:22.312Z</time>
      </trkpt>
      <trkpt lat="61.13225" lon="5.33615">
        <ele>75.519323</ele>
        <time>2020-07-26T11:21:32.310Z</time>
      </trkpt>
      <trkpt lat="61.13455" lon="5.3389">
        <ele>67.399557</ele>
        <time>2020-07-26T11:22:10.358Z</time>
      </trkpt>
      <trkpt lat="61.13683" lon="5.33814">
        <ele>62.585303</ele>
        <time>2020-07-26T11:22:51.335Z</time>
      </trkpt>
      <trkpt lat="61.13875" lon="5.33968">
        <ele>64.114387</ele>
        <time>2020-07-26T11:24:07.318Z</time>
      </trkpt>
      <trkpt lat="61.13974" lon="5.34383">
        <ele>68.930794</ele>
        <time>2020-07-26T11:25:08.364Z</time>
      </trkpt>
      <trkpt lat="61.14114" lon="5.3474">
        <ele>67.914676</ele>
        <time>2020-07-26T11:26:11.325Z</time>
      </trkpt>
      <trkpt lat="61.14166" lon="5.35135">
        <ele>69.462641</ele>
        <time>2020-07-26T11:27:18.324Z</time>
      </trkpt>
      <trkpt lat="61.14302" lon="5.35517">
        <ele>72.17953</ele>
        <time>2020-07-26T11:28:15.311Z</time>
      </trkpt>
      <trkpt lat="61.14473" lon="5.35214">
        <ele>73.056298</ele>
        <time>2020-07-26T11:29:07.324Z</time>
      </trkpt>
      <trkpt lat="61.14591" lon="5.34807">
        <ele>73.038167</ele>
        <time>2020-07-26T11:30:03.333Z</time>
      </trkpt>
      <trkpt lat="61.1478" lon="5.34612">
        <ele>74.174633</ele>
        <time>2020-07-26T11:31:06.348Z</time>
      </trkpt>
      <trkpt lat="61.14966" lon="5.34397">
        <ele>74.074462</ele>
        <time>2020-07-26T11:31:59.319Z</time>
      </trkpt>
      <trkpt lat="61.15159" lon="5.34457">
        <ele>78.849407</ele>
        <time>2020-07-26T11:33:01.324Z</time>
      </trkpt>
      <trkpt lat="61.1532" lon="5.34787">
        <ele>78.374979</ele>
        <time>2020-07-26T11:33:53.337Z</time>
      </trkpt>
      <trkpt lat="61.15533" lon="5.35001">
        <ele>72.818088</ele>
        <time>2020-07-26T11:34:52.335Z</time>
      </trkpt>
      <trkpt lat="61.15659" lon="5.34769">
        <ele>78.891722</ele>
        <time>2020-07-26T11:35:53.319Z</time>
      </trkpt>
      <trkpt lat="61.15601" lon="5.344">
        <ele>98.44923</ele>
        <time>2020-07-26T11:37:51.320Z</time>
      </trkpt>
      <trkpt lat="61.15579" lon="5.34282">
        <ele>113.985469</ele>
        <time>2020-07-26T11:40:10.341Z</time>
      </trkpt>
      <trkpt lat="61.15717" lon="5.34505">
        <ele>129.826389</ele>
        <time>2020-07-26T11:42:34.331Z</time>
      </trkpt>
      <trkpt lat="61.15747" lon="5.343">
        <ele>149.725815</ele>
        <time>2020-07-26T11:44:56.333Z</time>
      </trkpt>
      <trkpt lat="61.15916" lon="5.34213">
        <ele>161.195087</ele>
        <time>2020-07-26T11:47:18.334Z</time>
      </trkpt>
      <trkpt lat="61.16005" lon="5.33865">
        <ele>161.593501</ele>
        <time>2020-07-26T11:48:30.337Z</time>
      </trkpt>
      <trkpt lat="61.16178" lon="5.33626">
        <ele>170.978562</ele>
        <time>2020-07-26T11:50:09.349Z</time>
      </trkpt>
      <trkpt lat="61.16226" lon="5.33183">
        <ele>166.30103</ele>
        <time>2020-07-26T11:51:07.310Z</time>
      </trkpt>
      <trkpt lat="61.1621" lon="5.32763">
        <ele>149.708454</ele>
        <time>2020-07-26T11:51:28.308Z</time>
      </trkpt>
      <trkpt lat="61.16229" lon="5.32337">
        <ele>140.713949</ele>
        <time>2020-07-26T11:51:48.333Z</time>
      </trkpt>
      <trkpt lat="61.1625" lon="5.31851">
        <ele>131.251435</ele>
        <time>2020-07-26T11:52:09.353Z</time>
      </trkpt>
      <trkpt lat="61.16341" lon="5.31413">
        <ele>135.556017</ele>
        <time>2020-07-26T11:52:56.305Z</time>
      </trkpt>
      <trkpt lat="61.16443" lon="5.31007">
        <ele>136.702513</ele>
        <time>2020-07-26T11:53:48.341Z</time>
      </trkpt>
      <trkpt lat="61.16368" lon="5.30553">
        <ele>123.527148</ele>
        <time>2020-07-26T11:54:11.331Z</time>
      </trkpt>
      <trkpt lat="61.16523" lon="5.30195">
        <ele>111.49379</ele>
        <time>2020-07-26T11:54:31.321Z</time>
      </trkpt>
      <trkpt lat="61.16746" lon="5.29915">
        <ele>97.22561</ele>
        <time>2020-07-26T11:54:52.317Z</time>
      </trkpt>
      <trkpt lat="61.17002" lon="5.29777">
        <ele>91.229008</ele>
        <time>2020-07-26T11:55:34.315Z</time>
      </trkpt>
      <trkpt lat="61.17219" lon="5.29626">
        <ele>81.844896</ele>
        <time>2020-07-26T11:59:35.311Z</time>
      </trkpt>
      <trkpt lat="61.17378" lon="5.29947">
        <ele>70.008917</ele>
        <time>2020-07-26T12:00:03.338Z</time>
      </trkpt>
      <trkpt lat="61.1751" lon="5.29787">
        <ele>70.342818</ele>
        <time>2020-07-26T12:00:58.329Z</time>
      </trkpt>
      <trkpt lat="61.17718" lon="5.29863">
        <ele>71.499231</ele>
        <time>2020-07-26T12:02:09.337Z</time>
      </trkpt>
      <trkpt lat="61.17914" lon="5.29992">
        <ele>74.487346</ele>
        <time>2020-07-26T12:03:27.337Z</time>
      </trkpt>
      <trkpt lat="61.18111" lon="5.30223">
        <ele>74.052221</ele>
        <time>2020-07-26T12:04:28.331Z</time>
      </trkpt>
      <trkpt lat="61.18206" lon="5.30682">
        <ele>63.739595</ele>
        <time>2020-07-26T12:05:02.328Z</time>
      </trkpt>
      <trkpt lat="61.18324" lon="5.3101">
        <ele>55.815141</ele>
        <time>2020-07-26T12:05:24.324Z</time>
      </trkpt>
      <trkpt lat="61.18476" lon="5.31401">
        <ele>56.859122</ele>
        <time>2020-07-26T12:06:06.338Z</time>
      </trkpt>
      <trkpt lat="61.18688" lon="5.31397">
        <ele>64.018306</ele>
        <time>2020-07-26T12:07:46.345Z</time>
      </trkpt>
      <trkpt lat="61.1892" lon="5.31199">
        <ele>58.194853</ele>
        <time>2020-07-26T12:08:24.325Z</time>
      </trkpt>
      <trkpt lat="61.18941" lon="5.3076">
        <ele>56.038914</ele>
        <time>2020-07-26T12:09:13.319Z</time>
      </trkpt>
      <trkpt lat="61.19004" lon="5.30364">
        <ele>68.166951</ele>
        <time>2020-07-26T12:11:01.342Z</time>
      </trkpt>
      <trkpt lat="61.19124" lon="5.29998">
        <ele>78.696823</ele>
        <time>2020-07-26T12:12:36.365Z</time>
      </trkpt>
      <trkpt lat="61.19269" lon="5.29691">
        <ele>80.969395</ele>
        <time>2020-07-26T12:13:57.325Z</time>
      </trkpt>
      <trkpt lat="61.19436" lon="5.29386">
        <ele>68.467279</ele>
        <time>2020-07-26T12:14:59.327Z</time>
      </trkpt>
      <trkpt lat="61.19588" lon="5.29018">
        <ele>82.236755</ele>
        <time>2020-07-26T12:15:41.304Z</time>
      </trkpt>
      <trkpt lat="61.19734" lon="5.28647">
        <ele>84.980736</ele>
        <time>2020-07-26T12:16:47.369Z</time>
      </trkpt>
      <trkpt lat="61.19898" lon="5.28232">
        <ele>70.935329</ele>
        <time>2020-07-26T12:17:26.339Z</time>
      </trkpt>
      <trkpt lat="61.20025" lon="5.27829">
        <ele>59.825952</ele>
        <time>2020-07-26T12:17:52.341Z</time>
      </trkpt>
      <trkpt lat="61.20139" lon="5.27404">
        <ele>60.876288</ele>
        <time>2020-07-26T12:18:35.332Z</time>
      </trkpt>
      <trkpt lat="61.20274" lon="5.27084">
        <ele>62.176313</ele>
        <time>2020-07-26T12:19:16.314Z</time>
      </trkpt>
      <trkpt lat="61.20416" lon="5.26701">
        <ele>56.944036</ele>
        <time>2020-07-26T12:20:04.318Z</time>
      </trkpt>
      <trkpt lat="61.20528" lon="5.26312">
        <ele>63.59184</ele>
        <time>2020-07-26T12:20:57.321Z</time>
      </trkpt>
      <trkpt lat="61.20611" lon="5.25906">
        <ele>69.10075</ele>
        <time>2020-07-26T12:22:17.338Z</time>
      </trkpt>
      <trkpt lat="61.20722" lon="5.25467">
        <ele>57.062291</ele>
        <time>2020-07-26T12:23:09.321Z</time>
      </trkpt>
      <trkpt lat="61.2083" lon="5.25033">
        <ele>60.955893</ele>
        <time>2020-07-26T12:24:07.356Z</time>
      </trkpt>
      <trkpt lat="61.20965" lon="5.24638">
        <ele>58.785307</ele>
        <time>2020-07-26T12:25:02.350Z</time>
      </trkpt>
      <trkpt lat="61.21049" lon="5.2425">
        <ele>55.091122</ele>
        <time>2020-07-26T12:25:44.345Z</time>
      </trkpt>
      <trkpt lat="61.21158" lon="5.23829">
        <ele>60.076135</ele>
        <time>2020-07-26T12:26:35.358Z</time>
      </trkpt>
      <trkpt lat="61.2127" lon="5.23458">
        <ele>66.027512</ele>
        <time>2020-07-26T12:27:43.359Z</time>
      </trkpt>
      <trkpt lat="61.2137" lon="5.23057">
        <ele>66.92407</ele>
        <time>2020-07-26T12:28:59.334Z</time>
      </trkpt>
      <trkpt lat="61.21494" lon="5.22668">
        <ele>67.549825</ele>
        <time>2020-07-26T12:29:53.302Z</time>
      </trkpt>
      <trkpt lat="61.21683" lon="5.22559">
        <ele>77.921905</ele>
        <time>2020-07-26T12:31:49.330Z</time>
      </trkpt>
      <trkpt lat="61.21833" lon="5.22284">
        <ele>85.386244</ele>
        <time>2020-07-26T12:33:21.305Z</time>
      </trkpt>
      <trkpt lat="61.21997" lon="5.22049">
        <ele>87.486202</ele>
        <time>2020-07-26T12:34:39.339Z</time>
      </trkpt>
      <trkpt lat="61.22084" lon="5.2155">
        <ele>84.246798</ele>
        <time>2020-07-26T12:35:30.321Z</time>
      </trkpt>
      <trkpt lat="61.22191" lon="5.21032">
        <ele>82.523572</ele>
        <time>2020-07-26T12:36:15.308Z</time>
      </trkpt>
      <trkpt lat="61.22263" lon="5.20618">
        <ele>83.662298</ele>
        <time>2020-07-26T12:37:18.327Z</time>
      </trkpt>
      <trkpt lat="61.22357" lon="5.20238">
        <ele>79.250429</ele>
        <time>2020-07-26T12:38:24.321Z</time>
      </trkpt>
    </trkseg>
  </trk>
</gpx>